Terminal Aerodrome Forecast
Issued by NWS

Home | Current Version | Previous Version | Text Only | Print | Product List | Glossary On
Versions: 1 2 3 4 5 6 7 8 9 10 11 12 13 14
000
FTUS45 KABQ 200500
TAFSAF
TAF
KSAF 200528Z 2006/2106 19008KT P6SM SCT090 BKN130
     FM200900 35006KT P6SM SCT060 BKN090
     FM201600 33007KT P6SM SCT060 SCT100
     FM201900 29008G15KT P6SM SCT070 SCT150
     FM210100 32006KT P6SM FEW080 SCT150=

USA.gov is the U.S. government's official web portal to all federal, state and local government web resources and services.